sensor_id;sensor_type;location;lat;lon;timestamp;temperature;humidity
26262;DHT22;13988;52.446;13.280;2022-10-23T00:00:31;11.80;99.90
26262;DHT22;13988;52.446;13.280;2022-10-23T00:02:57;11.80;99.90
26262;DHT22;13988;52.446;13.280;2022-10-23T00:05:24;11.80;99.90
26262;DHT22;13988;52.446;13.280;2022-10-23T00:07:52;11.80;99.90
26262;DHT22;13988;52.446;13.280;2022-10-23T00:10:19;11.70;99.90
26262;DHT22;13988;52.446;13.280;2022-10-23T00:12:46;11.70;99.90
26262;DHT22;13988;52.446;13.280;2022-10-23T00:15:12;11.70;99.90
26262;DHT22;13988;52.446;13.280;2022-10-23T00:17:38;11.60;99.90
26262;DHT22;13988;52.446;13.280;2022-10-23T00:20:06;11.60;99.90
26262;DHT22;13988;52.446;13.280;2022-10-23T00:22:32;11.60;99.90
26262;DHT22;13988;52.446;13.280;2022-10-23T00:24:57;11.70;99.90
26262;DHT22;13988;52.446;13.280;2022-10-23T00:27:23;11.70;99.90
26262;DHT22;13988;52.446;13.280;2022-10-23T00:29:48;11.70;99.90
26262;DHT22;13988;52.446;13.280;2022-10-23T00:32:14;11.70;99.90
26262;DHT22;13988;52.446;13.280;2022-10-23T00:34:40;11.70;99.90
26262;DHT22;13988;52.446;13.280;2022-10-23T00:37:05;11.80;99.90
26262;DHT22;13988;52.446;13.280;2022-10-23T00:39:31;11.80;99.90
26262;DHT22;13988;52.446;13.280;2022-10-23T00:41:56;11.90;99.90
26262;DHT22;13988;52.446;13.280;2022-10-23T00:46:48;12.10;99.90
26262;DHT22;13988;52.446;13.280;2022-10-23T00:49:14;12.00;99.90
26262;DHT22;13988;52.446;13.280;2022-10-23T00:51:46;12.00;99.90
26262;DHT22;13988;52.446;13.280;2022-10-23T00:54:15;12.00;99.90
26262;DHT22;13988;52.446;13.280;2022-10-23T00:56:43;12.10;99.90
26262;DHT22;13988;52.446;13.280;2022-10-23T00:59:09;12.00;99.90
26262;DHT22;13988;52.446;13.280;2022-10-23T01:01:34;12.00;99.90
26262;DHT22;13988;52.446;13.280;2022-10-23T01:04:02;12.00;99.90
26262;DHT22;13988;52.446;13.280;2022-10-23T01:09:36;11.90;99.90
26262;DHT22;13988;52.446;13.280;2022-10-23T01:12:34;11.80;99.90
26262;DHT22;13988;52.446;13.280;2022-10-23T01:18:26;11.80;99.90
26262;DHT22;13988;52.446;13.280;2022-10-23T01:21:10;11.80;99.90
26262;DHT22;13988;52.446;13.280;2022-10-23T01:31:49;11.60;99.90
26262;DHT22;13988;52.446;13.280;2022-10-23T01:34:27;11.60;99.90
26262;DHT22;13988;52.446;13.280;2022-10-23T01:36:55;11.60;99.90
26262;DHT22;13988;52.446;13.280;2022-10-23T01:39:33;11.60;99.90
26262;DHT22;13988;52.446;13.280;2022-10-23T01:42:09;11.70;99.90
26262;DHT22;13988;52.446;13.280;2022-10-23T01:45:04;11.70;99.90
26262;DHT22;13988;52.446;13.280;2022-10-23T01:47:33;11.70;99.90
26262;DHT22;13988;52.446;13.280;2022-10-23T01:50:02;11.70;99.90
26262;DHT22;13988;52.446;13.280;2022-10-23T01:52:28;11.70;99.90
26262;DHT22;13988;52.446;13.280;2022-10-23T01:54:55;11.70;99.90
26262;DHT22;13988;52.446;13.280;2022-10-23T01:57:25;11.70;99.90
26262;DHT22;13988;52.446;13.280;2022-10-23T02:00:00;11.70;99.90
26262;DHT22;13988;52.446;13.280;2022-10-23T02:02:27;11.70;99.90
26262;DHT22;13988;52.446;13.280;2022-10-23T02:04:57;11.70;99.90
26262;DHT22;13988;52.446;13.280;2022-10-23T02:07:24;11.70;99.90
26262;DHT22;13988;52.446;13.280;2022-10-23T02:09:50;11.70;99.90
26262;DHT22;13988;52.446;13.280;2022-10-23T02:15:19;11.70;99.90
26262;DHT22;13988;52.446;13.280;2022-10-23T02:18:02;11.70;99.90
26262;DHT22;13988;52.446;13.280;2022-10-23T02:20:36;11.70;99.90
26262;DHT22;13988;52.446;13.280;2022-10-23T02:23:31;11.70;99.90
26262;DHT22;13988;52.446;13.280;2022-10-23T02:26:16;11.60;99.90
26262;DHT22;13988;52.446;13.280;2022-10-23T02:28:47;11.60;99.90
26262;DHT22;13988;52.446;13.280;2022-10-23T02:31:16;11.50;99.90
26262;DHT22;13988;52.446;13.280;2022-10-23T02:33:44;11.60;99.90
26262;DHT22;13988;52.446;13.280;2022-10-23T02:36:11;11.50;99.90
26262;DHT22;13988;52.446;13.280;2022-10-23T02:38:41;11.50;99.90
26262;DHT22;13988;52.446;13.280;2022-10-23T02:41:15;11.50;99.90
26262;DHT22;13988;52.446;13.280;2022-10-23T02:44:07;11.50;99.90
26262;DHT22;13988;52.446;13.280;2022-10-23T02:49:23;11.50;99.90
26262;DHT22;13988;52.446;13.280;2022-10-23T02:52:32;11.50;99.90
26262;DHT22;13988;52.446;13.280;2022-10-23T03:00:48;11.30;99.90
26262;DHT22;13988;52.446;13.280;2022-10-23T03:03:25;11.30;99.90
26262;DHT22;13988;52.446;13.280;2022-10-23T03:05:52;11.30;99.90
26262;DHT22;13988;52.446;13.280;2022-10-23T03:08:18;11.20;99.90
26262;DHT22;13988;52.446;13.280;2022-10-23T03:10:43;11.20;99.90
26262;DHT22;13988;52.446;13.280;2022-10-23T03:13:10;11.20;99.90
26262;DHT22;13988;52.446;13.280;2022-10-23T03:15:35;11.20;99.90
26262;DHT22;13988;52.446;13.280;2022-10-23T03:18:01;11.20;99.90
26262;DHT22;13988;52.446;13.280;2022-10-23T03:20:27;11.10;99.90
26262;DHT22;13988;52.446;13.280;2022-10-23T03:22:52;11.10;99.90
26262;DHT22;13988;52.446;13.280;2022-10-23T03:25:18;11.10;99.90
26262;DHT22;13988;52.446;13.280;2022-10-23T03:27:43;11.10;99.90
26262;DHT22;13988;52.446;13.280;2022-10-23T03:30:09;11.00;99.90
26262;DHT22;13988;52.446;13.280;2022-10-23T03:32:35;11.00;99.90
26262;DHT22;13988;52.446;13.280;2022-10-23T03:35:00;11.00;99.90
26262;DHT22;13988;52.446;13.280;2022-10-23T03:37:26;10.90;99.90
26262;DHT22;13988;52.446;13.280;2022-10-23T03:39:52;10.90;99.90
26262;DHT22;13988;52.446;13.280;2022-10-23T03:42:17;10.90;99.90
26262;DHT22;13988;52.446;13.280;2022-10-23T03:44:43;10.90;99.90
26262;DHT22;13988;52.446;13.280;2022-10-23T03:47:09;10.90;99.90
26262;DHT22;13988;52.446;13.280;2022-10-23T03:49:36;10.80;99.90
26262;DHT22;13988;52.446;13.280;2022-10-23T03:52:02;10.70;99.90
26262;DHT22;13988;52.446;13.280;2022-10-23T03:54:28;10.80;99.90
26262;DHT22;13988;52.446;13.280;2022-10-23T03:56:55;10.80;99.90
26262;DHT22;13988;52.446;13.280;2022-10-23T03:59:20;10.60;99.90
26262;DHT22;13988;52.446;13.280;2022-10-23T04:01:46;10.60;99.90
26262;DHT22;13988;52.446;13.280;2022-10-23T04:04:12;10.60;99.90
26262;DHT22;13988;52.446;13.280;2022-10-23T04:06:38;10.60;99.90
26262;DHT22;13988;52.446;13.280;2022-10-23T04:09:04;10.60;99.90
26262;DHT22;13988;52.446;13.280;2022-10-23T04:11:30;10.50;99.90
26262;DHT22;13988;52.446;13.280;2022-10-23T04:13:56;10.50;99.90
26262;DHT22;13988;52.446;13.280;2022-10-23T04:16:22;10.50;99.90
26262;DHT22;13988;52.446;13.280;2022-10-23T04:18:48;10.40;99.90
26262;DHT22;13988;52.446;13.280;2022-10-23T04:21:14;10.30;99.90
26262;DHT22;13988;52.446;13.280;2022-10-23T04:23:39;10.30;99.90
26262;DHT22;13988;52.446;13.280;2022-10-23T04:26:05;10.30;99.90
26262;DHT22;13988;52.446;13.280;2022-10-23T04:28:30;10.30;99.90
26262;DHT22;13988;52.446;13.280;2022-10-23T04:30:56;10.30;99.90
26262;DHT22;13988;52.446;13.280;2022-10-23T04:33:22;10.20;99.90
26262;DHT22;13988;52.446;13.280;2022-10-23T04:35:47;10.20;99.90
26262;DHT22;13988;52.446;13.280;2022-10-23T04:38:13;10.20;99.90
26262;DHT22;13988;52.446;13.280;2022-10-23T04:40:38;10.20;99.90
26262;DHT22;13988;52.446;13.280;2022-10-23T04:43:04;10.10;99.90
26262;DHT22;13988;52.446;13.280;2022-10-23T04:45:30;10.10;99.90
26262;DHT22;13988;52.446;13.280;2022-10-23T04:47:55;10.00;99.90
26262;DHT22;13988;52.446;13.280;2022-10-23T04:50:21;10.00;99.90
26262;DHT22;13988;52.446;13.280;2022-10-23T04:52:47;9.90;99.90
26262;DHT22;13988;52.446;13.280;2022-10-23T04:55:13;9.90;99.90
26262;DHT22;13988;52.446;13.280;2022-10-23T04:57:38;9.90;99.90
26262;DHT22;13988;52.446;13.280;2022-10-23T05:00:06;9.90;99.90
26262;DHT22;13988;52.446;13.280;2022-10-23T05:02:32;9.90;99.90
26262;DHT22;13988;52.446;13.280;2022-10-23T05:04:58;9.90;99.90
26262;DHT22;13988;52.446;13.280;2022-10-23T05:07:24;9.90;99.90
26262;DHT22;13988;52.446;13.280;2022-10-23T05:09:49;9.90;99.90
26262;DHT22;13988;52.446;13.280;2022-10-23T05:12:15;9.90;99.90
26262;DHT22;13988;52.446;13.280;2022-10-23T05:14:40;9.90;99.90
26262;DHT22;13988;52.446;13.280;2022-10-23T05:17:10;9.80;99.90
26262;DHT22;13988;52.446;13.280;2022-10-23T05:19:41;9.80;99.90
26262;DHT22;13988;52.446;13.280;2022-10-23T05:22:09;9.80;99.90
26262;DHT22;13988;52.446;13.280;2022-10-23T05:24:35;9.80;99.90
26262;DHT22;13988;52.446;13.280;2022-10-23T05:27:01;9.90;99.90
26262;DHT22;13988;52.446;13.280;2022-10-23T05:29:26;9.80;99.90
26262;DHT22;13988;52.446;13.280;2022-10-23T05:31:56;9.80;99.90
26262;DHT22;13988;52.446;13.280;2022-10-23T05:34:24;9.90;99.90
26262;DHT22;13988;52.446;13.280;2022-10-23T05:36:51;9.90;99.90
26262;DHT22;13988;52.446;13.280;2022-10-23T05:39:17;9.80;99.90
26262;DHT22;13988;52.446;13.280;2022-10-23T05:41:43;9.80;99.90
26262;DHT22;13988;52.446;13.280;2022-10-23T05:44:08;9.80;99.90
26262;DHT22;13988;52.446;13.280;2022-10-23T05:46:34;9.80;99.90
26262;DHT22;13988;52.446;13.280;2022-10-23T05:49:04;9.80;99.90
26262;DHT22;13988;52.446;13.280;2022-10-23T05:51:29;9.80;99.90
26262;DHT22;13988;52.446;13.280;2022-10-23T05:53:55;9.80;99.90
26262;DHT22;13988;52.446;13.280;2022-10-23T05:56:20;9.70;99.90
26262;DHT22;13988;52.446;13.280;2022-10-23T05:58:46;9.70;99.90
26262;DHT22;13988;52.446;13.280;2022-10-23T06:01:13;9.70;99.90
26262;DHT22;13988;52.446;13.280;2022-10-23T06:03:39;9.70;99.90
26262;DHT22;13988;52.446;13.280;2022-10-23T06:06:06;9.70;99.90
26262;DHT22;13988;52.446;13.280;2022-10-23T06:08:32;9.70;99.90
26262;DHT22;13988;52.446;13.280;2022-10-23T06:11:03;9.70;99.90
26262;DHT22;13988;52.446;13.280;2022-10-23T06:13:29;9.70;99.90
26262;DHT22;13988;52.446;13.280;2022-10-23T06:15:54;9.60;99.90
26262;DHT22;13988;52.446;13.280;2022-10-23T06:18:20;9.60;99.90
26262;DHT22;13988;52.446;13.280;2022-10-23T06:20:45;9.60;99.90
26262;DHT22;13988;52.446;13.280;2022-10-23T06:23:11;9.60;99.90
26262;DHT22;13988;52.446;13.280;2022-10-23T06:25:36;9.60;99.90
26262;DHT22;13988;52.446;13.280;2022-10-23T06:28:02;9.70;99.90
26262;DHT22;13988;52.446;13.280;2022-10-23T06:30:27;9.70;99.90
26262;DHT22;13988;52.446;13.280;2022-10-23T06:32:53;9.70;99.90
26262;DHT22;13988;52.446;13.280;2022-10-23T06:35:18;9.70;99.90
26262;DHT22;13988;52.446;13.280;2022-10-23T06:37:44;9.70;99.90
26262;DHT22;13988;52.446;13.280;2022-10-23T06:40:10;9.70;99.90
26262;DHT22;13988;52.446;13.280;2022-10-23T06:42:35;9.70;99.90
26262;DHT22;13988;52.446;13.280;2022-10-23T06:45:01;9.90;99.90
26262;DHT22;13988;52.446;13.280;2022-10-23T06:47:26;9.90;99.90
26262;DHT22;13988;52.446;13.280;2022-10-23T06:49:52;10.10;99.90
26262;DHT22;13988;52.446;13.280;2022-10-23T06:52:17;10.10;99.90
26262;DHT22;13988;52.446;13.280;2022-10-23T06:54:43;10.30;99.90
26262;DHT22;13988;52.446;13.280;2022-10-23T06:57:08;10.40;99.90
26262;DHT22;13988;52.446;13.280;2022-10-23T06:59:34;10.40;99.90
26262;DHT22;13988;52.446;13.280;2022-10-23T07:01:59;10.50;99.90
26262;DHT22;13988;52.446;13.280;2022-10-23T07:04:25;10.50;99.90
26262;DHT22;13988;52.446;13.280;2022-10-23T07:06:54;10.50;99.90
26262;DHT22;13988;52.446;13.280;2022-10-23T07:09:19;10.50;99.90
26262;DHT22;13988;52.446;13.280;2022-10-23T07:11:45;10.50;99.90
26262;DHT22;13988;52.446;13.280;2022-10-23T07:14:10;10.60;99.90
26262;DHT22;13988;52.446;13.280;2022-10-23T07:16:36;10.60;99.90
26262;DHT22;13988;52.446;13.280;2022-10-23T07:19:01;10.60;99.90
26262;DHT22;13988;52.446;13.280;2022-10-23T07:21:29;10.70;99.90
26262;DHT22;13988;52.446;13.280;2022-10-23T07:23:56;10.80;99.90
26262;DHT22;13988;52.446;13.280;2022-10-23T07:26:22;10.80;99.90
26262;DHT22;13988;52.446;13.280;2022-10-23T07:28:48;11.00;99.90
26262;DHT22;13988;52.446;13.280;2022-10-23T07:31:23;11.10;99.90
26262;DHT22;13988;52.446;13.280;2022-10-23T07:33:50;11.20;99.90
26262;DHT22;13988;52.446;13.280;2022-10-23T07:36:16;11.20;99.90
26262;DHT22;13988;52.446;13.280;2022-10-23T07:38:41;11.30;99.90
26262;DHT22;13988;52.446;13.280;2022-10-23T07:41:07;11.40;99.90
26262;DHT22;13988;52.446;13.280;2022-10-23T07:43:33;11.40;99.90
26262;DHT22;13988;52.446;13.280;2022-10-23T07:46:00;11.50;99.90
26262;DHT22;13988;52.446;13.280;2022-10-23T07:48:25;11.60;99.90
26262;DHT22;13988;52.446;13.280;2022-10-23T07:50:53;11.60;99.90
26262;DHT22;13988;52.446;13.280;2022-10-23T07:53:22;11.70;99.90
26262;DHT22;13988;52.446;13.280;2022-10-23T07:58:18;11.80;99.90
26262;DHT22;13988;52.446;13.280;2022-10-23T08:00:44;12.10;99.90
26262;DHT22;13988;52.446;13.280;2022-10-23T08:03:09;11.90;99.90
26262;DHT22;13988;52.446;13.280;2022-10-23T08:05:37;12.00;99.90
26262;DHT22;13988;52.446;13.280;2022-10-23T08:08:03;12.00;99.90
26262;DHT22;13988;52.446;13.280;2022-10-23T08:10:28;12.00;99.90
26262;DHT22;13988;52.446;13.280;2022-10-23T08:12:54;12.10;99.90
26262;DHT22;13988;52.446;13.280;2022-10-23T08:15:19;12.10;99.90
26262;DHT22;13988;52.446;13.280;2022-10-23T08:17:45;12.10;99.90
26262;DHT22;13988;52.446;13.280;2022-10-23T08:20:10;12.10;99.90
26262;DHT22;13988;52.446;13.280;2022-10-23T08:22:38;12.20;99.90
26262;DHT22;13988;52.446;13.280;2022-10-23T08:25:04;12.20;99.90
26262;DHT22;13988;52.446;13.280;2022-10-23T08:27:30;12.20;99.90
26262;DHT22;13988;52.446;13.280;2022-10-23T08:29:56;12.30;99.90
26262;DHT22;13988;52.446;13.280;2022-10-23T08:32:21;12.30;99.90
26262;DHT22;13988;52.446;13.280;2022-10-23T08:34:47;12.40;99.90
26262;DHT22;13988;52.446;13.280;2022-10-23T08:37:12;12.40;99.90
26262;DHT22;13988;52.446;13.280;2022-10-23T08:39:38;12.50;99.90
26262;DHT22;13988;52.446;13.280;2022-10-23T08:42:03;12.50;99.90
26262;DHT22;13988;52.446;13.280;2022-10-23T08:44:37;12.60;99.90
26262;DHT22;13988;52.446;13.280;2022-10-23T08:47:11;12.70;99.90
26262;DHT22;13988;52.446;13.280;2022-10-23T08:49:49;12.80;99.90
26262;DHT22;13988;52.446;13.280;2022-10-23T08:52:20;12.80;99.90
26262;DHT22;13988;52.446;13.280;2022-10-23T08:55:22;12.90;99.90
26262;DHT22;13988;52.446;13.280;2022-10-23T08:58:04;13.00;99.90
26262;DHT22;13988;52.446;13.280;2022-10-23T09:00:31;13.10;99.90
26262;DHT22;13988;52.446;13.280;2022-10-23T09:03:00;13.20;99.90
26262;DHT22;13988;52.446;13.280;2022-10-23T09:13:20;13.50;99.90
26262;DHT22;13988;52.446;13.280;2022-10-23T09:16:00;13.60;99.90
26262;DHT22;13988;52.446;13.280;2022-10-23T09:18:29;13.70;99.90
26262;DHT22;13988;52.446;13.280;2022-10-23T09:20:55;13.90;99.90
26262;DHT22;13988;52.446;13.280;2022-10-23T09:23:23;14.10;99.90
26262;DHT22;13988;52.446;13.280;2022-10-23T09:25:50;14.10;99.90
26262;DHT22;13988;52.446;13.280;2022-10-23T09:28:38;14.10;99.90
26262;DHT22;13988;52.446;13.280;2022-10-23T09:31:10;14.30;99.90
26262;DHT22;13988;52.446;13.280;2022-10-23T09:33:37;14.30;99.90
26262;DHT22;13988;52.446;13.280;2022-10-23T09:43:40;14.70;99.90
26262;DHT22;13988;52.446;13.280;2022-10-23T09:46:07;14.70;99.90
26262;DHT22;13988;52.446;13.280;2022-10-23T09:48:35;14.80;99.90
26262;DHT22;13988;52.446;13.280;2022-10-23T09:51:03;14.70;99.90
26262;DHT22;13988;52.446;13.280;2022-10-23T09:53:54;14.80;99.90
26262;DHT22;13988;52.446;13.280;2022-10-23T09:56:29;14.90;99.90
26262;DHT22;13988;52.446;13.280;2022-10-23T09:58:59;15.00;99.90
26262;DHT22;13988;52.446;13.280;2022-10-23T10:01:30;15.00;99.90
26262;DHT22;13988;52.446;13.280;2022-10-23T10:03:57;15.10;99.90
26262;DHT22;13988;52.446;13.280;2022-10-23T10:06:28;15.20;99.90
26262;DHT22;13988;52.446;13.280;2022-10-23T10:09:01;15.30;99.90
26262;DHT22;13988;52.446;13.280;2022-10-23T10:14:52;15.40;99.90
26262;DHT22;13988;52.446;13.280;2022-10-23T10:20:31;15.70;99.90
26262;DHT22;13988;52.446;13.280;2022-10-23T10:23:21;15.70;99.90
26262;DHT22;13988;52.446;13.280;2022-10-23T10:26:31;15.80;99.90
26262;DHT22;13988;52.446;13.280;2022-10-23T10:29:05;16.00;99.90
26262;DHT22;13988;52.446;13.280;2022-10-23T10:37:05;16.10;99.90
26262;DHT22;13988;52.446;13.280;2022-10-23T10:45:45;16.40;99.90
26262;DHT22;13988;52.446;13.280;2022-10-23T10:50:46;16.50;99.90
26262;DHT22;13988;52.446;13.280;2022-10-23T10:56:01;16.80;99.90
26262;DHT22;13988;52.446;13.280;2022-10-23T11:01:19;16.90;99.90
26262;DHT22;13988;52.446;13.280;2022-10-23T11:06:42;17.10;99.90
26262;DHT22;13988;52.446;13.280;2022-10-23T11:09:16;17.30;99.90
26262;DHT22;13988;52.446;13.280;2022-10-23T11:11:42;17.50;99.90
26262;DHT22;13988;52.446;13.280;2022-10-23T11:14:20;17.50;99.90
26262;DHT22;13988;52.446;13.280;2022-10-23T11:17:10;17.60;99.90
26262;DHT22;13988;52.446;13.280;2022-10-23T11:19:46;17.70;99.90
26262;DHT22;13988;52.446;13.280;2022-10-23T11:22:35;17.70;99.90
26262;DHT22;13988;52.446;13.280;2022-10-23T11:25:09;17.90;99.90
26262;DHT22;13988;52.446;13.280;2022-10-23T11:36:18;18.20;99.90
26262;DHT22;13988;52.446;13.280;2022-10-23T11:38:48;18.00;99.90
26262;DHT22;13988;52.446;13.280;2022-10-23T11:41:24;18.20;99.90
26262;DHT22;13988;52.446;13.280;2022-10-23T11:43:59;17.90;99.90
26262;DHT22;13988;52.446;13.280;2022-10-23T11:46:36;18.20;99.90
26262;DHT22;13988;52.446;13.280;2022-10-23T11:49:04;18.30;99.90
26262;DHT22;13988;52.446;13.280;2022-10-23T11:51:37;18.20;99.90
26262;DHT22;13988;52.446;13.280;2022-10-23T11:56:35;18.70;99.90
26262;DHT22;13988;52.446;13.280;2022-10-23T12:01:48;19.20;99.90
26262;DHT22;13988;52.446;13.280;2022-10-23T12:06:57;19.30;99.90
26262;DHT22;13988;52.446;13.280;2022-10-23T12:09:30;20.10;99.90
26262;DHT22;13988;52.446;13.280;2022-10-23T12:14:35;19.60;99.90
26262;DHT22;13988;52.446;13.280;2022-10-23T12:17:02;19.20;99.90
26262;DHT22;13988;52.446;13.280;2022-10-23T12:19:47;18.60;99.90
26262;DHT22;13988;52.446;13.280;2022-10-23T12:22:13;18.60;99.90
26262;DHT22;13988;52.446;13.280;2022-10-23T12:24:59;18.40;99.90
26262;DHT22;13988;52.446;13.280;2022-10-23T12:30:38;18.30;99.90
26262;DHT22;13988;52.446;13.280;2022-10-23T12:33:31;18.20;99.90
26262;DHT22;13988;52.446;13.280;2022-10-23T12:36:20;18.20;99.90
26262;DHT22;13988;52.446;13.280;2022-10-23T12:38:49;18.10;99.90
26262;DHT22;13988;52.446;13.280;2022-10-23T12:41:18;18.00;99.90
26262;DHT22;13988;52.446;13.280;2022-10-23T12:43:54;18.00;99.90
26262;DHT22;13988;52.446;13.280;2022-10-23T12:46:38;18.10;99.90
26262;DHT22;13988;52.446;13.280;2022-10-23T12:49:14;18.10;99.90
26262;DHT22;13988;52.446;13.280;2022-10-23T12:51:39;18.30;99.90
26262;DHT22;13988;52.446;13.280;2022-10-23T12:54:32;18.20;99.90
26262;DHT22;13988;52.446;13.280;2022-10-23T12:57:26;18.20;99.90
26262;DHT22;13988;52.446;13.280;2022-10-23T12:59:56;18.20;99.90
26262;DHT22;13988;52.446;13.280;2022-10-23T13:02:28;18.30;99.90
26262;DHT22;13988;52.446;13.280;2022-10-23T13:04:55;18.30;99.90
26262;DHT22;13988;52.446;13.280;2022-10-23T13:07:27;18.20;99.90
26262;DHT22;13988;52.446;13.280;2022-10-23T13:09:53;18.10;99.90
26262;DHT22;13988;52.446;13.280;2022-10-23T13:12:28;18.10;99.90
26262;DHT22;13988;52.446;13.280;2022-10-23T13:17:20;18.00;99.90
26262;DHT22;13988;52.446;13.280;2022-10-23T13:19:46;18.00;99.90
26262;DHT22;13988;52.446;13.280;2022-10-23T13:22:18;18.10;99.90
26262;DHT22;13988;52.446;13.280;2022-10-23T13:24:44;18.30;99.90
26262;DHT22;13988;52.446;13.280;2022-10-23T13:29:54;18.40;99.90
26262;DHT22;13988;52.446;13.280;2022-10-23T13:32:24;18.80;99.90
26262;DHT22;13988;52.446;13.280;2022-10-23T13:34:51;19.00;99.90
26262;DHT22;13988;52.446;13.280;2022-10-23T13:37:27;18.70;99.90
26262;DHT22;13988;52.446;13.280;2022-10-23T13:40:02;18.50;99.90
26262;DHT22;13988;52.446;13.280;2022-10-23T13:42:28;18.30;99.90
26262;DHT22;13988;52.446;13.280;2022-10-23T13:44:54;18.30;99.90
26262;DHT22;13988;52.446;13.280;2022-10-23T13:47:19;18.20;99.90
26262;DHT22;13988;52.446;13.280;2022-10-23T13:49:45;18.20;99.90
26262;DHT22;13988;52.446;13.280;2022-10-23T13:52:13;18.00;99.90
26262;DHT22;13988;52.446;13.280;2022-10-23T13:54:41;17.80;99.90
26262;DHT22;13988;52.446;13.280;2022-10-23T13:57:12;18.00;99.90
26262;DHT22;13988;52.446;13.280;2022-10-23T13:59:39;17.80;99.90
26262;DHT22;13988;52.446;13.280;2022-10-23T14:02:22;17.90;99.90
26262;DHT22;13988;52.446;13.280;2022-10-23T14:04:49;17.80;99.90
26262;DHT22;13988;52.446;13.280;2022-10-23T14:07:15;17.80;99.90
26262;DHT22;13988;52.446;13.280;2022-10-23T14:09:40;17.70;99.90
26262;DHT22;13988;52.446;13.280;2022-10-23T14:12:06;17.60;99.90
26262;DHT22;13988;52.446;13.280;2022-10-23T14:14:32;17.60;99.90
26262;DHT22;13988;52.446;13.280;2022-10-23T14:16:58;17.40;99.90
26262;DHT22;13988;52.446;13.280;2022-10-23T14:19:24;17.40;99.90
26262;DHT22;13988;52.446;13.280;2022-10-23T14:21:49;17.40;99.90
26262;DHT22;13988;52.446;13.280;2022-10-23T14:24:15;17.30;99.90
26262;DHT22;13988;52.446;13.280;2022-10-23T14:26:40;17.30;99.90
26262;DHT22;13988;52.446;13.280;2022-10-23T14:29:07;17.30;99.90
26262;DHT22;13988;52.446;13.280;2022-10-23T14:31:33;17.20;99.90
26262;DHT22;13988;52.446;13.280;2022-10-23T14:33:58;17.20;99.90
26262;DHT22;13988;52.446;13.280;2022-10-23T14:36:26;17.30;99.90
26262;DHT22;13988;52.446;13.280;2022-10-23T14:38:57;17.20;99.90
26262;DHT22;13988;52.446;13.280;2022-10-23T14:41:24;17.20;99.90
26262;DHT22;13988;52.446;13.280;2022-10-23T14:43:50;17.20;99.90
26262;DHT22;13988;52.446;13.280;2022-10-23T14:46:18;17.10;99.90
26262;DHT22;13988;52.446;13.280;2022-10-23T14:48:44;17.10;99.90
26262;DHT22;13988;52.446;13.280;2022-10-23T14:51:28;17.10;99.90
26262;DHT22;13988;52.446;13.280;2022-10-23T14:53:56;17.00;99.90
26262;DHT22;13988;52.446;13.280;2022-10-23T14:56:23;16.90;99.90
26262;DHT22;13988;52.446;13.280;2022-10-23T14:58:49;16.90;99.90
26262;DHT22;13988;52.446;13.280;2022-10-23T15:01:15;16.70;99.90
26262;DHT22;13988;52.446;13.280;2022-10-23T15:03:40;16.70;99.90
26262;DHT22;13988;52.446;13.280;2022-10-23T15:06:07;16.60;99.90
26262;DHT22;13988;52.446;13.280;2022-10-23T15:08:33;16.60;99.90
26262;DHT22;13988;52.446;13.280;2022-10-23T15:11:00;16.50;99.90
26262;DHT22;13988;52.446;13.280;2022-10-23T15:13:26;16.50;99.90
26262;DHT22;13988;52.446;13.280;2022-10-23T15:16:07;16.40;99.90
26262;DHT22;13988;52.446;13.280;2022-10-23T15:18:34;16.30;99.90
26262;DHT22;13988;52.446;13.280;2022-10-23T15:21:06;16.30;99.90
26262;DHT22;13988;52.446;13.280;2022-10-23T15:23:37;16.20;99.90
26262;DHT22;13988;52.446;13.280;2022-10-23T15:26:06;16.20;99.90
26262;DHT22;13988;52.446;13.280;2022-10-23T15:28:32;16.10;99.90
26262;DHT22;13988;52.446;13.280;2022-10-23T15:30:58;16.00;99.90
26262;DHT22;13988;52.446;13.280;2022-10-23T15:33:24;15.90;99.90
26262;DHT22;13988;52.446;13.280;2022-10-23T15:35:51;15.80;99.90
26262;DHT22;13988;52.446;13.280;2022-10-23T15:38:17;15.70;99.90
26262;DHT22;13988;52.446;13.280;2022-10-23T15:40:43;15.70;99.90
26262;DHT22;13988;52.446;13.280;2022-10-23T15:43:13;15.50;99.90
26262;DHT22;13988;52.446;13.280;2022-10-23T15:45:40;15.50;99.90
26262;DHT22;13988;52.446;13.280;2022-10-23T15:48:06;15.50;99.90
26262;DHT22;13988;52.446;13.280;2022-10-23T15:50:32;15.50;99.90
26262;DHT22;13988;52.446;13.280;2022-10-23T15:52:58;15.50;99.90
26262;DHT22;13988;52.446;13.280;2022-10-23T15:55:24;15.50;99.90
26262;DHT22;13988;52.446;13.280;2022-10-23T15:57:50;15.40;99.90
26262;DHT22;13988;52.446;13.280;2022-10-23T16:00:15;15.30;99.90
26262;DHT22;13988;52.446;13.280;2022-10-23T16:02:42;15.30;99.90
26262;DHT22;13988;52.446;13.280;2022-10-23T16:05:07;15.30;99.90
26262;DHT22;13988;52.446;13.280;2022-10-23T16:07:33;15.40;99.90
26262;DHT22;13988;52.446;13.280;2022-10-23T16:09:59;15.30;99.90
26262;DHT22;13988;52.446;13.280;2022-10-23T16:12:24;15.30;99.90
26262;DHT22;13988;52.446;13.280;2022-10-23T16:14:50;15.40;99.90
26262;DHT22;13988;52.446;13.280;2022-10-23T16:17:16;15.40;99.90
26262;DHT22;13988;52.446;13.280;2022-10-23T16:19:42;15.50;99.90
26262;DHT22;13988;52.446;13.280;2022-10-23T16:22:08;15.50;99.90
26262;DHT22;13988;52.446;13.280;2022-10-23T16:24:33;15.40;99.90
26262;DHT22;13988;52.446;13.280;2022-10-23T16:26:59;15.40;99.90
26262;DHT22;13988;52.446;13.280;2022-10-23T16:29:26;15.30;99.90
26262;DHT22;13988;52.446;13.280;2022-10-23T16:31:53;15.20;99.90
26262;DHT22;13988;52.446;13.280;2022-10-23T16:34:19;15.20;99.90
26262;DHT22;13988;52.446;13.280;2022-10-23T16:36:45;15.10;99.90
26262;DHT22;13988;52.446;13.280;2022-10-23T16:39:12;15.10;99.90
26262;DHT22;13988;52.446;13.280;2022-10-23T16:41:38;15.10;99.90
26262;DHT22;13988;52.446;13.280;2022-10-23T16:44:04;15.10;99.90
26262;DHT22;13988;52.446;13.280;2022-10-23T16:46:30;15.20;99.90
26262;DHT22;13988;52.446;13.280;2022-10-23T16:48:56;15.20;99.90
26262;DHT22;13988;52.446;13.280;2022-10-23T16:51:24;15.10;99.90
26262;DHT22;13988;52.446;13.280;2022-10-23T16:53:51;15.10;99.90
26262;DHT22;13988;52.446;13.280;2022-10-23T16:56:19;15.10;99.90
26262;DHT22;13988;52.446;13.280;2022-10-23T16:58:46;15.10;99.90
26262;DHT22;13988;52.446;13.280;2022-10-23T17:01:23;15.10;99.90
26262;DHT22;13988;52.446;13.280;2022-10-23T17:03:50;15.10;99.90
26262;DHT22;13988;52.446;13.280;2022-10-23T17:06:18;15.10;99.90
26262;DHT22;13988;52.446;13.280;2022-10-23T17:08:44;15.20;99.90
26262;DHT22;13988;52.446;13.280;2022-10-23T17:11:11;15.10;99.90